WEATHER DATA

YESTERDAY
Time Temp. Dewp. Hum. Wind dir Wind speed Wind gust Bar.
00:05 16.6 10.9 69 0 0.8 1008.1
00:15 16.5 10.8 69 161 0.3 0.8 1008.2
00:25 16.3 10.8 70 0 0.8 1008
00:35 16.2 10.7 70 149 0.3 1.1 1008.1
00:45 16.1 10.6 70 0 0.8 1008
00:55 16 10.8 71 0 0.8 1007.9
01:06 15.9 10.7 71 219 0.8 1.1 1007.9
01:16 15.8 10.6 71 216 0.8 1.1 1007.9
01:25 15.6 10.4 71 211 0.8 1.7 1007.8
01:35 15.5 10.5 72 213 0.8 1.7 1007.7
01:46 15.5 10.5 72 206 0.8 1.4 1007.6
01:56 15.4 10.4 72 210 0.8 1.1 1007.6
02:06 15.3 10.3 72 219 0.8 1.1 1007.4
02:16 15.2 10.2 72 213 0.8 1.1 1007.5
02:26 15.2 10.2 72 206 0.8 1.4 1007.4
02:36 15.1 10.1 72 215 0.8 1.1 1007.4
02:46 15 10.2 73 219 0.8 1.1 1007.3
02:57 14.9 10.1 73 216 0.8 1.1 1007.3
03:06 14.8 10 73 0 0.8 1007.5
03:16 14.7 9.9 73 186 0.3 0.8 1007.3
03:26 14.6 10 74 174 0.3 0.8 1007.2
03:37 14.5 9.9 74 189 0.3 1.1 1007.3
03:47 14.4 10 75 194 0.3 0.8 1007.2
03:57 14.3 9.9 75 167 0.3 1.1 1007.4
04:07 14.2 9.8 75 201 0.3 0.8 1007.1
04:17 14.1 9.9 76 185 0.3 1.1 1007.1
04:27 14 9.8 76 180 0.3 1.1 1007.2
04:37 14 9.8 76 0 0.8 1007.2
04:48 13.9 9.9 77 185 0.3 0.8 1007.2
04:57 13.8 9.8 77 185 0.3 0.8 1007.3
05:07 13.8 9.8 77 176 0.3 1.1 1007.2
05:18 13.7 9.7 77 203 0.3 0.8 1007.1
05:28 13.7 9.9 78 173 0.3 1.1 1007
05:38 13.6 9.8 78 191 0.3 1.1 1007.1
05:47 13.6 9.8 78 180 0.3 0.8 1007.1
05:58 13.6 10 79 173 0.3 1.1 1007.1
06:08 13.6 10 79 195 0.3 1.1 1007
06:18 13.7 10.3 80 210 0.3 1.1 1007
06:28 13.8 10.2 79 180 0.3 0.8 1007
06:38 14.5 11.5 82 168 0.3 0.8 1006.9
06:48 16 12.4 79 225 0.3 1.1 1007
06:58 16.7 12.3 75 225 0.3 0.8 1007.1
07:09 18.1 13 72 237 0.3 1.1 1007.1
07:19 19 12.7 67 270 0.3 1.1 1007
07:28 19.8 13.7 68 225 0.3 1.1 1007
07:39 20.9 13.8 64 168 0.3 1.1 1007.1
07:49 20.9 13.6 63 213 0.3 1.1 1007.1
07:59 22 14.4 62 190 0.3 1.7 1007.1
08:09 23.1 14.7 59 205 0.3 1.1 1007.1
08:19 23.7 15 58 191 0.3 1.4 1007.1
08:29 23.8 14.5 56 196 0.8 1.4 1007.1
08:39 23.7 14.7 57 199 0.8 1.7 1006.9
08:49 23.6 14.6 57 206 0.3 1.4 1006.9
09:00 23.4 14.7 58 198 0.3 1.1 1007
09:09 22.9 14.5 59 149 0.3 1.4 1007
09:19 22.7 14.5 60 149 0.3 1.7 1007
09:30 22.7 14.5 60 135 0.3 1.1 1006.9
09:40 22.9 15 61 146 0.3 1.7 1006.9
09:50 23.1 14.9 60 170 0.3 1.4 1006.8
10:00 23.2 15 60 141 0.8 2.2 1006.7
10:10 23.5 15 59 124 0.3 1.7 1006.8
10:20 23.7 15.2 59 143 0.3 1.1 1006.9
10:30 24 15 57 135 0.8 1.7 1006.8
10:40 23.8 14.2 55 140 0.8 2.5 1006.8
10:51 23.9 14.6 56 140 0.8 1.7 1006.9
11:00 24.2 14.6 55 145 0.8 1.7 1006.7
11:10 24.2 14.3 54 135 0.8 1.4 1006.9
11:21 24.5 14.6 54 145 0.8 1.4 1006.8
11:31 25.1 15.1 54 145 0.3 1.4 1006.6
11:41 25.6 14.7 51 141 0.8 1.7 1006.7
11:51 25.6 14.4 50 138 0.8 1.7 1006.5
12:01 25.5 13.7 48 140 0.8 2.5 1006.4
12:11 25.5 14.6 51 146 0.3 1.7 1006.4
12:21 25.3 13.8 49 145 1.1 3.3 1006.2
12:32 25.1 13 47 157 0.8 2.5 1006.3
12:41 25.2 13.4 48 152 0.3 1.4 1006.1
12:51 25.5 13.4 47 152 0.8 2.2 1006
13:01 25.7 13.9 48 160 0.8 2.2 1006
13:12 25.9 14.1 48 156 0.3 2.2 1005.9
13:32 25.6 14.4 50 151 0.8 2.2 1005.9
13:42 25.6 14.4 50 141 0.8 1.7 1005.8
14:02 26 15.1 51 154 0.3 1.1 1005.7
14:12 26.2 15.6 52 161 0.3 1.1 1005.6
14:23 26 15.1 51 145 0.8 1.7 1005.3
14:32 26.1 15.5 52 155 0.8 1.7 1005.4
14:42 25.9 15.3 52 166 0.3 1.4 1005.2
14:53 25.7 15.4 53 149 0.3 1.4 1005.1
15:03 25.6 15.3 53 149 0.8 2.5 1005
15:13 25.4 15.1 53 144 0.8 1.7 1004.9
15:22 25.2 15.2 54 163 0.3 1.1 1005.1
15:33 24.8 16 58 165 0.3 1.4 1005.1
15:43 24.5 17 63 173 0.3 0.8 1005
15:56 24.6 17.1 63 176 0.3 0.8 1004.9
16:06 24.8 17 62 187 0.3 0.8 1004.7
16:15 25.2 17.1 61 152 0.3 1.1 1004.5
16:26 25.4 16.3 57 142 0.3 1.7 1004.3
16:36 25.5 16.6 58 147 0.3 1.1 1004.1
16:46 25.5 16.4 57 153 0.3 0.8 1004.3
16:56 25.6 16.5 57 144 0.3 0.8 1004.1
17:06 25.5 16.1 56 135 0.3 1.1 1003.9
17:16 25.3 15.9 56 151 0.3 1.4 1003.8
17:26 25.1 16 57 156 0.3 1.1 1003.6
17:37 25.1 16 57 145 0.3 1.1 1003.5
17:47 25.1 16.3 58 149 0.3 1.1 1003.5
17:56 25 16.2 58 154 0.8 2.2 1003.2
18:06 24.9 15.8 57 149 0.8 1.4 1003.2
18:17 24.9 15.8 57 139 0.3 1.4 1002.8
18:27 24.9 15.8 57 149 0.8 2.2 1002.9
18:37 24.8 15.7 57 143 0.8 1.7 1002.6
18:47 24.7 15.6 57 159 0.3 1.4 1002.6
18:57 24.5 15.7 58 160 0.8 1.4 1002.4
19:07 24.3 15.8 59 176 0.3 1.1 1002.3
19:17 24.1 15.6 59 183 0.3 1.4 1002.1
19:26 23.9 15.7 60 180 0.8 3.3 1003.3
19:36 22.4 16.2 68 165 0.3 2.2 1003.1
19:46 21.4 16.1 72 185 0.3 1.4 1002.8
19:56 21.1 16.5 75 180 0.3 0.8 1002.9
20:06 21 16.6 76 240 0.3 0.8 1002.9
20:16 20.9 16.5 76 270 0.3 1.1 1002.9
20:27 20.8 16.6 77 270 0.3 1.1 1003.2
20:37 20.7 16.7 78 270 0.3 1.1 1003
20:47 20.7 16.7 78 161 0.3 1.1 1003.1
20:56 20.7 16.9 79 135 0.3 0.8 1003.1
21:07 20.6 16.8 79 147 0.3 0.8 1003.1
21:17 20.5 16.7 79 153 0.3 0.8 1003.2
21:27 20.4 16.6 79 153 0.3 0.8 1003.5
21:34 20.3 16.5 79 222 0.8 1.1 1003.5
21:44 20.2 16.6 80 222 0.8 1.1 1003.4
21:55 20.1 16.5 80 225 0.8 1.1 1003.3
22:04 19.9 16.3 80 222 0.8 1.1 1003.2
22:14 19.8 16.1 79 225 0.8 1.1 1003
22:24 19.6 15.9 79 225 0.3 1.1 1003.6
22:35 19.6 15.9 79 225 0.3 1.1 1003.3
22:45 19.5 15.6 78 214 0.3 0.8 1003.1
22:54 19.2 15.3 78 211 0.3 1.1 1003.2
23:05 19 15.3 79 213 0.3 1.1 1003.1
23:15 18.9 15.2 79 210 0.3 1.1 1003.3
23:25 18.6 14.9 79 208 0.8 1.4 1003.4
23:35 18.3 14.6 79 192 0.8 1.4 1003.5
23:45 18 14.3 79 195 0.8 1.4 1003.5
23:55 17.7 14 79 204 0.8 1.1 1003.5

DAY STATISTIC

2021-07-30
TEMPERATURE
AVERAGE
20.7
HIGH
26.2
14:12
LOW
13.6
05:38
PRESSURE
AVERAGE
1005.6
HIGH
1008.2
00:15
LOW
1002.1
19:17
DEWPOINT
AVERAGE
13.8
HIGH
17.1
15:56
LOW
9.7
05:18
HUMIDITY
AVERAGE
66
HIGH
82
06:38
LOW
47
12:32
WIND SPEED
AVERAGE
0.5
HIGH
1.1
12:21
WIND GUST
AVERAGE
1.3
HIGH
3.3
12:21
WIND DIRECTION
PREVAILING
SE
36.2%
N
0.0
NE
0.0
E
0.0
SE
36.2
S
33.3
SW
23.4
W
2.8
NW
0.0
TEMPERATURE (°C)
LOW
13.6
HIGH
26.2
AVERAGE
20.7
PRESSURE (hpa)
LOW
1002.1
HIGH
1008.2
AVERAGE
1005.6
DEVICE